sensor_id;sensor_type;location;lat;lon;timestamp;P1;durP1;ratioP1;P2;durP2;ratioP2
21876;SDS011;11103;43.788;23.710;2023-02-28T00:00:08;55.17;;;26.77;;
21876;SDS011;11103;43.788;23.710;2023-02-28T00:02:36;53.10;;;27.00;;
21876;SDS011;11103;43.788;23.710;2023-02-28T00:05:02;52.50;;;27.10;;
21876;SDS011;11103;43.788;23.710;2023-02-28T00:07:29;52.47;;;26.30;;
21876;SDS011;11103;43.788;23.710;2023-02-28T00:09:55;50.97;;;27.03;;
21876;SDS011;11103;43.788;23.710;2023-02-28T00:12:21;51.90;;;27.93;;
21876;SDS011;11103;43.788;23.710;2023-02-28T00:14:46;56.83;;;29.00;;
21876;SDS011;11103;43.788;23.710;2023-02-28T00:17:12;54.10;;;27.40;;
21876;SDS011;11103;43.788;23.710;2023-02-28T00:19:37;59.70;;;28.37;;
21876;SDS011;11103;43.788;23.710;2023-02-28T00:22:03;59.57;;;28.63;;
21876;SDS011;11103;43.788;23.710;2023-02-28T00:24:28;58.17;;;29.23;;
21876;SDS011;11103;43.788;23.710;2023-02-28T00:26:53;57.67;;;29.10;;
21876;SDS011;11103;43.788;23.710;2023-02-28T00:29:19;61.23;;;28.40;;
21876;SDS011;11103;43.788;23.710;2023-02-28T00:31:44;53.87;;;27.33;;
21876;SDS011;11103;43.788;23.710;2023-02-28T00:34:10;62.63;;;29.13;;
21876;SDS011;11103;43.788;23.710;2023-02-28T00:36:35;65.03;;;30.07;;
21876;SDS011;11103;43.788;23.710;2023-02-28T00:39:01;57.53;;;28.33;;
21876;SDS011;11103;43.788;23.710;2023-02-28T00:41:26;57.90;;;28.87;;
21876;SDS011;11103;43.788;23.710;2023-02-28T00:43:51;54.97;;;28.03;;
21876;SDS011;11103;43.788;23.710;2023-02-28T00:46:17;54.87;;;28.00;;
21876;SDS011;11103;43.788;23.710;2023-02-28T00:48:42;58.83;;;29.30;;
21876;SDS011;11103;43.788;23.710;2023-02-28T00:51:08;59.53;;;28.17;;
21876;SDS011;11103;43.788;23.710;2023-02-28T00:53:33;56.53;;;28.40;;
21876;SDS011;11103;43.788;23.710;2023-02-28T00:55:59;59.17;;;29.03;;
21876;SDS011;11103;43.788;23.710;2023-02-28T00:58:25;58.40;;;28.77;;
21876;SDS011;11103;43.788;23.710;2023-02-28T01:00:51;60.53;;;29.87;;
21876;SDS011;11103;43.788;23.710;2023-02-28T01:03:18;67.13;;;30.93;;
21876;SDS011;11103;43.788;23.710;2023-02-28T01:05:44;64.93;;;31.57;;
21876;SDS011;11103;43.788;23.710;2023-02-28T01:08:10;69.83;;;30.90;;
21876;SDS011;11103;43.788;23.710;2023-02-28T01:10:36;60.60;;;28.47;;
21876;SDS011;11103;43.788;23.710;2023-02-28T01:13:02;64.40;;;29.57;;
21876;SDS011;11103;43.788;23.710;2023-02-28T01:15:27;61.50;;;30.27;;
21876;SDS011;11103;43.788;23.710;2023-02-28T01:17:53;60.93;;;29.50;;
21876;SDS011;11103;43.788;23.710;2023-02-28T01:20:19;59.90;;;30.47;;
21876;SDS011;11103;43.788;23.710;2023-02-28T01:22:44;65.63;;;29.90;;
21876;SDS011;11103;43.788;23.710;2023-02-28T01:25:09;57.60;;;28.27;;
21876;SDS011;11103;43.788;23.710;2023-02-28T01:27:35;53.90;;;26.80;;
21876;SDS011;11103;43.788;23.710;2023-02-28T01:30:01;57.90;;;28.63;;
21876;SDS011;11103;43.788;23.710;2023-02-28T01:32:27;50.23;;;26.70;;
21876;SDS011;11103;43.788;23.710;2023-02-28T01:34:52;51.63;;;26.87;;
21876;SDS011;11103;43.788;23.710;2023-02-28T01:37:18;49.33;;;27.00;;
21876;SDS011;11103;43.788;23.710;2023-02-28T01:39:43;47.27;;;25.37;;
21876;SDS011;11103;43.788;23.710;2023-02-28T01:42:09;47.63;;;27.10;;
21876;SDS011;11103;43.788;23.710;2023-02-28T01:47:22;34.87;;;21.07;;
21876;SDS011;11103;43.788;23.710;2023-02-28T01:49:50;31.80;;;20.03;;
21876;SDS011;11103;43.788;23.710;2023-02-28T01:52:16;32.03;;;20.23;;
21876;SDS011;11103;43.788;23.710;2023-02-28T01:54:43;30.07;;;19.20;;
21876;SDS011;11103;43.788;23.710;2023-02-28T01:57:14;27.67;;;17.83;;
21876;SDS011;11103;43.788;23.710;2023-02-28T01:59:46;21.07;;;14.60;;
21876;SDS011;11103;43.788;23.710;2023-02-28T02:02:20;21.67;;;15.07;;
21876;SDS011;11103;43.788;23.710;2023-02-28T02:04:53;21.80;;;15.70;;
21876;SDS011;11103;43.788;23.710;2023-02-28T02:07:22;21.23;;;14.47;;
21876;SDS011;11103;43.788;23.710;2023-02-28T02:09:50;20.83;;;13.57;;
21876;SDS011;11103;43.788;23.710;2023-02-28T02:12:32;20.30;;;14.23;;
21876;SDS011;11103;43.788;23.710;2023-02-28T02:15:25;20.13;;;14.30;;
21876;SDS011;11103;43.788;23.710;2023-02-28T02:18:01;18.57;;;13.27;;
21876;SDS011;11103;43.788;23.710;2023-02-28T02:26:04;16.47;;;11.90;;
21876;SDS011;11103;43.788;23.710;2023-02-28T02:36:35;10.63;;;8.27;;
21876;SDS011;11103;43.788;23.710;2023-02-28T02:39:19;11.17;;;8.33;;
21876;SDS011;11103;43.788;23.710;2023-02-28T02:41:54;10.53;;;8.63;;
21876;SDS011;11103;43.788;23.710;2023-02-28T02:44:24;10.43;;;8.70;;
21876;SDS011;11103;43.788;23.710;2023-02-28T02:47:19;8.03;;;7.23;;
21876;SDS011;11103;43.788;23.710;2023-02-28T02:49:49;9.47;;;7.23;;
21876;SDS011;11103;43.788;23.710;2023-02-28T02:52:18;8.13;;;7.33;;
21876;SDS011;11103;43.788;23.710;2023-02-28T02:54:48;9.13;;;7.77;;
21876;SDS011;11103;43.788;23.710;2023-02-28T02:57:17;9.27;;;7.77;;
21876;SDS011;11103;43.788;23.710;2023-02-28T02:59:48;9.80;;;7.53;;
21876;SDS011;11103;43.788;23.710;2023-02-28T03:02:16;8.27;;;6.80;;
21876;SDS011;11103;43.788;23.710;2023-02-28T03:04:45;9.93;;;7.87;;
21876;SDS011;11103;43.788;23.710;2023-02-28T03:07:16;9.73;;;8.23;;
21876;SDS011;11103;43.788;23.710;2023-02-28T03:09:49;9.80;;;8.47;;
21876;SDS011;11103;43.788;23.710;2023-02-28T03:12:16;10.60;;;8.23;;
21876;SDS011;11103;43.788;23.710;2023-02-28T03:14:48;11.00;;;8.57;;
21876;SDS011;11103;43.788;23.710;2023-02-28T03:20:17;9.10;;;8.07;;
21876;SDS011;11103;43.788;23.710;2023-02-28T03:33:43;13.87;;;9.83;;
21876;SDS011;11103;43.788;23.710;2023-02-28T03:36:19;12.73;;;9.63;;
21876;SDS011;11103;43.788;23.710;2023-02-28T03:38:57;15.53;;;11.23;;
21876;SDS011;11103;43.788;23.710;2023-02-28T03:41:38;15.83;;;11.13;;
21876;SDS011;11103;43.788;23.710;2023-02-28T03:44:12;14.73;;;11.63;;
21876;SDS011;11103;43.788;23.710;2023-02-28T03:46:44;12.67;;;10.07;;
21876;SDS011;11103;43.788;23.710;2023-02-28T03:49:25;13.30;;;10.37;;
21876;SDS011;11103;43.788;23.710;2023-02-28T03:51:57;13.93;;;11.57;;
21876;SDS011;11103;43.788;23.710;2023-02-28T03:54:28;13.20;;;10.43;;
21876;SDS011;11103;43.788;23.710;2023-02-28T03:57:05;13.57;;;11.07;;
21876;SDS011;11103;43.788;23.710;2023-02-28T03:59:39;13.20;;;10.47;;
21876;SDS011;11103;43.788;23.710;2023-02-28T04:02:09;14.00;;;10.90;;
21876;SDS011;11103;43.788;23.710;2023-02-28T04:04:35;15.07;;;11.40;;
21876;SDS011;11103;43.788;23.710;2023-02-28T04:07:02;13.93;;;10.80;;
21876;SDS011;11103;43.788;23.710;2023-02-28T04:09:32;13.20;;;10.97;;
21876;SDS011;11103;43.788;23.710;2023-02-28T04:11:58;14.60;;;10.87;;
21876;SDS011;11103;43.788;23.710;2023-02-28T04:14:24;16.20;;;11.13;;
21876;SDS011;11103;43.788;23.710;2023-02-28T04:16:50;17.73;;;12.13;;
21876;SDS011;11103;43.788;23.710;2023-02-28T04:19:18;15.53;;;11.53;;
21876;SDS011;11103;43.788;23.710;2023-02-28T04:21:45;13.57;;;10.70;;
21876;SDS011;11103;43.788;23.710;2023-02-28T04:24:17;13.60;;;11.23;;
21876;SDS011;11103;43.788;23.710;2023-02-28T04:26:51;15.13;;;11.13;;
21876;SDS011;11103;43.788;23.710;2023-02-28T04:29:28;14.57;;;11.37;;
21876;SDS011;11103;43.788;23.710;2023-02-28T04:31:55;15.73;;;11.93;;
21876;SDS011;11103;43.788;23.710;2023-02-28T04:34:25;16.40;;;11.73;;
21876;SDS011;11103;43.788;23.710;2023-02-28T04:36:52;17.30;;;12.23;;
21876;SDS011;11103;43.788;23.710;2023-02-28T04:39:19;18.97;;;13.40;;
21876;SDS011;11103;43.788;23.710;2023-02-28T04:41:46;17.80;;;13.33;;
21876;SDS011;11103;43.788;23.710;2023-02-28T04:44:11;18.80;;;14.00;;
21876;SDS011;11103;43.788;23.710;2023-02-28T04:46:37;17.20;;;13.70;;
21876;SDS011;11103;43.788;23.710;2023-02-28T04:49:02;22.67;;;16.07;;
21876;SDS011;11103;43.788;23.710;2023-02-28T04:51:28;20.60;;;14.03;;
21876;SDS011;11103;43.788;23.710;2023-02-28T04:53:53;20.87;;;15.30;;
21876;SDS011;11103;43.788;23.710;2023-02-28T04:56:19;24.57;;;15.83;;
21876;SDS011;11103;43.788;23.710;2023-02-28T04:58:46;18.67;;;14.57;;
21876;SDS011;11103;43.788;23.710;2023-02-28T05:03:42;24.63;;;16.67;;
21876;SDS011;11103;43.788;23.710;2023-02-28T05:06:08;20.53;;;14.80;;
21876;SDS011;11103;43.788;23.710;2023-02-28T05:08:35;21.80;;;16.13;;
21876;SDS011;11103;43.788;23.710;2023-02-28T05:11:01;25.00;;;18.13;;
21876;SDS011;11103;43.788;23.710;2023-02-28T05:13:27;24.47;;;16.63;;
21876;SDS011;11103;43.788;23.710;2023-02-28T05:15:53;24.90;;;18.70;;
21876;SDS011;11103;43.788;23.710;2023-02-28T05:18:19;25.30;;;18.10;;
21876;SDS011;11103;43.788;23.710;2023-02-28T05:20:45;27.97;;;19.87;;
21876;SDS011;11103;43.788;23.710;2023-02-28T05:23:11;25.63;;;17.93;;
21876;SDS011;11103;43.788;23.710;2023-02-28T05:25:38;29.30;;;19.30;;
21876;SDS011;11103;43.788;23.710;2023-02-28T05:28:04;23.93;;;15.87;;
21876;SDS011;11103;43.788;23.710;2023-02-28T05:30:30;21.23;;;15.97;;
21876;SDS011;11103;43.788;23.710;2023-02-28T05:32:56;23.80;;;16.63;;
21876;SDS011;11103;43.788;23.710;2023-02-28T05:35:22;22.67;;;15.70;;
21876;SDS011;11103;43.788;23.710;2023-02-28T05:37:48;21.97;;;15.13;;
21876;SDS011;11103;43.788;23.710;2023-02-28T05:40:13;20.63;;;15.47;;
21876;SDS011;11103;43.788;23.710;2023-02-28T05:42:40;21.30;;;15.00;;
21876;SDS011;11103;43.788;23.710;2023-02-28T05:45:07;22.20;;;16.07;;
21876;SDS011;11103;43.788;23.710;2023-02-28T05:47:33;20.23;;;14.53;;
21876;SDS011;11103;43.788;23.710;2023-02-28T05:49:59;21.73;;;15.17;;
21876;SDS011;11103;43.788;23.710;2023-02-28T05:52:26;22.63;;;16.00;;
21876;SDS011;11103;43.788;23.710;2023-02-28T05:54:52;31.67;;;19.93;;
21876;SDS011;11103;43.788;23.710;2023-02-28T05:57:18;29.67;;;18.37;;
21876;SDS011;11103;43.788;23.710;2023-02-28T05:59:43;25.20;;;16.63;;
21876;SDS011;11103;43.788;23.710;2023-02-28T06:02:10;26.73;;;17.93;;
21876;SDS011;11103;43.788;23.710;2023-02-28T06:04:37;26.47;;;17.90;;
21876;SDS011;11103;43.788;23.710;2023-02-28T06:07:06;25.18;;;17.63;;
21876;SDS011;11103;43.788;23.710;2023-02-28T06:09:32;25.20;;;15.67;;
21876;SDS011;11103;43.788;23.710;2023-02-28T06:11:58;26.20;;;17.10;;
21876;SDS011;11103;43.788;23.710;2023-02-28T06:14:24;24.43;;;17.27;;
21876;SDS011;11103;43.788;23.710;2023-02-28T06:16:49;26.90;;;17.43;;
21876;SDS011;11103;43.788;23.710;2023-02-28T06:19:15;26.37;;;17.33;;
21876;SDS011;11103;43.788;23.710;2023-02-28T06:21:41;26.33;;;16.93;;
21876;SDS011;11103;43.788;23.710;2023-02-28T06:24:06;24.13;;;16.53;;
21876;SDS011;11103;43.788;23.710;2023-02-28T06:26:32;26.17;;;17.70;;
21876;SDS011;11103;43.788;23.710;2023-02-28T06:28:58;28.70;;;18.23;;
21876;SDS011;11103;43.788;23.710;2023-02-28T06:31:23;38.20;;;21.50;;
21876;SDS011;11103;43.788;23.710;2023-02-28T06:33:50;45.50;;;24.43;;
21876;SDS011;11103;43.788;23.710;2023-02-28T06:36:16;47.87;;;25.53;;
21876;SDS011;11103;43.788;23.710;2023-02-28T06:38:42;60.63;;;27.73;;
21876;SDS011;11103;43.788;23.710;2023-02-28T06:41:08;45.80;;;24.70;;
21876;SDS011;11103;43.788;23.710;2023-02-28T06:43:36;29.37;;;19.00;;
21876;SDS011;11103;43.788;23.710;2023-02-28T06:46:04;27.97;;;18.73;;
21876;SDS011;11103;43.788;23.710;2023-02-28T06:48:32;35.00;;;21.60;;
21876;SDS011;11103;43.788;23.710;2023-02-28T06:51:01;38.87;;;24.97;;
21876;SDS011;11103;43.788;23.710;2023-02-28T06:53:28;36.60;;;21.37;;
21876;SDS011;11103;43.788;23.710;2023-02-28T06:55:53;30.13;;;19.70;;
21876;SDS011;11103;43.788;23.710;2023-02-28T06:58:19;29.30;;;19.30;;
21876;SDS011;11103;43.788;23.710;2023-02-28T07:00:45;27.30;;;18.40;;
21876;SDS011;11103;43.788;23.710;2023-02-28T07:03:11;33.33;;;21.60;;
21876;SDS011;11103;43.788;23.710;2023-02-28T07:05:37;31.07;;;20.70;;
21876;SDS011;11103;43.788;23.710;2023-02-28T07:08:04;30.87;;;19.10;;
21876;SDS011;11103;43.788;23.710;2023-02-28T07:10:31;29.83;;;19.40;;
21876;SDS011;11103;43.788;23.710;2023-02-28T07:12:58;28.60;;;18.83;;
21876;SDS011;11103;43.788;23.710;2023-02-28T07:15:24;32.97;;;21.53;;
21876;SDS011;11103;43.788;23.710;2023-02-28T07:17:49;33.30;;;21.17;;
21876;SDS011;11103;43.788;23.710;2023-02-28T07:20:15;29.80;;;20.43;;
21876;SDS011;11103;43.788;23.710;2023-02-28T07:22:40;30.27;;;20.20;;
21876;SDS011;11103;43.788;23.710;2023-02-28T07:25:08;36.20;;;21.73;;
21876;SDS011;11103;43.788;23.710;2023-02-28T07:27:33;34.90;;;22.27;;
21876;SDS011;11103;43.788;23.710;2023-02-28T07:29:59;37.60;;;22.53;;
21876;SDS011;11103;43.788;23.710;2023-02-28T07:32:26;42.10;;;23.97;;
21876;SDS011;11103;43.788;23.710;2023-02-28T07:34:52;32.93;;;21.03;;
21876;SDS011;11103;43.788;23.710;2023-02-28T07:37:18;35.90;;;23.40;;
21876;SDS011;11103;43.788;23.710;2023-02-28T07:39:45;34.13;;;21.77;;
21876;SDS011;11103;43.788;23.710;2023-02-28T07:42:11;33.57;;;21.30;;
21876;SDS011;11103;43.788;23.710;2023-02-28T07:44:40;32.93;;;20.33;;
21876;SDS011;11103;43.788;23.710;2023-02-28T07:47:07;40.90;;;24.37;;
21876;SDS011;11103;43.788;23.710;2023-02-28T07:49:34;33.10;;;22.03;;
21876;SDS011;11103;43.788;23.710;2023-02-28T07:52:03;32.90;;;21.40;;
21876;SDS011;11103;43.788;23.710;2023-02-28T07:54:30;33.53;;;20.20;;
21876;SDS011;11103;43.788;23.710;2023-02-28T07:56:56;35.13;;;20.57;;
21876;SDS011;11103;43.788;23.710;2023-02-28T07:59:21;35.37;;;21.43;;
21876;SDS011;11103;43.788;23.710;2023-02-28T08:01:47;36.40;;;21.57;;
21876;SDS011;11103;43.788;23.710;2023-02-28T08:04:15;35.23;;;23.00;;
21876;SDS011;11103;43.788;23.710;2023-02-28T08:06:41;35.17;;;20.90;;
21876;SDS011;11103;43.788;23.710;2023-02-28T08:09:06;36.90;;;23.20;;
21876;SDS011;11103;43.788;23.710;2023-02-28T08:11:32;34.57;;;21.57;;
21876;SDS011;11103;43.788;23.710;2023-02-28T08:13:58;32.00;;;20.97;;
21876;SDS011;11103;43.788;23.710;2023-02-28T08:16:23;32.17;;;20.23;;
21876;SDS011;11103;43.788;23.710;2023-02-28T08:18:49;32.40;;;21.47;;
21876;SDS011;11103;43.788;23.710;2023-02-28T08:21:16;34.43;;;21.30;;
21876;SDS011;11103;43.788;23.710;2023-02-28T08:23:42;30.90;;;18.83;;
21876;SDS011;11103;43.788;23.710;2023-02-28T08:26:08;32.97;;;20.53;;
21876;SDS011;11103;43.788;23.710;2023-02-28T08:28:33;33.97;;;20.70;;
21876;SDS011;11103;43.788;23.710;2023-02-28T08:30:59;31.33;;;19.63;;
21876;SDS011;11103;43.788;23.710;2023-02-28T08:33:25;31.17;;;20.73;;
21876;SDS011;11103;43.788;23.710;2023-02-28T08:35:55;33.83;;;20.57;;
21876;SDS011;11103;43.788;23.710;2023-02-28T08:38:21;35.33;;;21.87;;
21876;SDS011;11103;43.788;23.710;2023-02-28T08:40:47;29.20;;;18.73;;
21876;SDS011;11103;43.788;23.710;2023-02-28T08:43:12;30.90;;;18.00;;
21876;SDS011;11103;43.788;23.710;2023-02-28T08:45:38;33.63;;;20.77;;
21876;SDS011;11103;43.788;23.710;2023-02-28T08:48:03;32.47;;;20.77;;
21876;SDS011;11103;43.788;23.710;2023-02-28T08:50:29;35.07;;;21.13;;
21876;SDS011;11103;43.788;23.710;2023-02-28T08:52:54;36.57;;;21.53;;
21876;SDS011;11103;43.788;23.710;2023-02-28T08:55:20;33.73;;;21.40;;
21876;SDS011;11103;43.788;23.710;2023-02-28T08:57:45;35.20;;;22.53;;
21876;SDS011;11103;43.788;23.710;2023-02-28T09:00:11;34.60;;;21.57;;
21876;SDS011;11103;43.788;23.710;2023-02-28T09:02:38;33.57;;;20.90;;
21876;SDS011;11103;43.788;23.710;2023-02-28T09:05:04;39.17;;;23.20;;
21876;SDS011;11103;43.788;23.710;2023-02-28T09:07:30;36.87;;;21.83;;
21876;SDS011;11103;43.788;23.710;2023-02-28T09:09:55;36.60;;;23.10;;
21876;SDS011;11103;43.788;23.710;2023-02-28T09:12:23;36.60;;;22.17;;
21876;SDS011;11103;43.788;23.710;2023-02-28T09:14:50;36.83;;;21.90;;
21876;SDS011;11103;43.788;23.710;2023-02-28T09:17:16;35.80;;;21.27;;
21876;SDS011;11103;43.788;23.710;2023-02-28T09:19:41;88.07;;;42.00;;
21876;SDS011;11103;43.788;23.710;2023-02-28T09:22:07;41.07;;;25.93;;
21876;SDS011;11103;43.788;23.710;2023-02-28T09:24:33;40.20;;;22.73;;
21876;SDS011;11103;43.788;23.710;2023-02-28T09:26:58;41.03;;;21.83;;
21876;SDS011;11103;43.788;23.710;2023-02-28T09:29:24;38.77;;;21.50;;
21876;SDS011;11103;43.788;23.710;2023-02-28T09:31:49;38.40;;;23.03;;
21876;SDS011;11103;43.788;23.710;2023-02-28T09:34:15;37.43;;;22.40;;
21876;SDS011;11103;43.788;23.710;2023-02-28T09:36:42;37.83;;;22.80;;
21876;SDS011;11103;43.788;23.710;2023-02-28T09:39:08;40.20;;;23.00;;
21876;SDS011;11103;43.788;23.710;2023-02-28T09:41:41;35.77;;;21.97;;
21876;SDS011;11103;43.788;23.710;2023-02-28T09:47:00;34.80;;;21.60;;
21876;SDS011;11103;43.788;23.710;2023-02-28T09:49:42;36.23;;;22.63;;
21876;SDS011;11103;43.788;23.710;2023-02-28T09:52:18;36.77;;;22.23;;
21876;SDS011;11103;43.788;23.710;2023-02-28T09:54:46;42.17;;;24.63;;
21876;SDS011;11103;43.788;23.710;2023-02-28T10:00:13;35.93;;;22.80;;
21876;SDS011;11103;43.788;23.710;2023-02-28T10:05:19;39.90;;;23.07;;
21876;SDS011;11103;43.788;23.710;2023-02-28T10:10:31;37.43;;;20.87;;
21876;SDS011;11103;43.788;23.710;2023-02-28T10:12:58;35.20;;;21.80;;
21876;SDS011;11103;43.788;23.710;2023-02-28T10:15:27;37.87;;;22.03;;
21876;SDS011;11103;43.788;23.710;2023-02-28T10:18:00;39.20;;;21.53;;
21876;SDS011;11103;43.788;23.710;2023-02-28T10:20:29;36.87;;;22.33;;
21876;SDS011;11103;43.788;23.710;2023-02-28T10:23:04;37.80;;;21.87;;
21876;SDS011;11103;43.788;23.710;2023-02-28T10:25:36;38.03;;;22.27;;
21876;SDS011;11103;43.788;23.710;2023-02-28T10:28:10;33.70;;;22.10;;
21876;SDS011;11103;43.788;23.710;2023-02-28T10:30:38;42.23;;;24.87;;
21876;SDS011;11103;43.788;23.710;2023-02-28T10:33:11;38.30;;;23.00;;
21876;SDS011;11103;43.788;23.710;2023-02-28T10:35:44;39.73;;;23.70;;
21876;SDS011;11103;43.788;23.710;2023-02-28T10:38:13;39.57;;;23.47;;
21876;SDS011;11103;43.788;23.710;2023-02-28T10:40:41;37.43;;;22.93;;
21876;SDS011;11103;43.788;23.710;2023-02-28T10:45:39;35.43;;;22.80;;
21876;SDS011;11103;43.788;23.710;2023-02-28T10:56:06;37.57;;;23.50;;
21876;SDS011;11103;43.788;23.710;2023-02-28T10:59:02;41.73;;;25.83;;
21876;SDS011;11103;43.788;23.710;2023-02-28T11:01:35;36.97;;;23.37;;
21876;SDS011;11103;43.788;23.710;2023-02-28T11:04:16;39.83;;;23.53;;
21876;SDS011;11103;43.788;23.710;2023-02-28T11:06:58;40.17;;;24.87;;
21876;SDS011;11103;43.788;23.710;2023-02-28T11:09:27;42.03;;;26.10;;
21876;SDS011;11103;43.788;23.710;2023-02-28T11:11:54;45.90;;;26.17;;
21876;SDS011;11103;43.788;23.710;2023-02-28T11:14:27;38.07;;;24.07;;
21876;SDS011;11103;43.788;23.710;2023-02-28T11:16:55;40.30;;;23.47;;
21876;SDS011;11103;43.788;23.710;2023-02-28T11:19:33;46.50;;;24.00;;
21876;SDS011;11103;43.788;23.710;2023-02-28T11:22:05;37.17;;;23.00;;
21876;SDS011;11103;43.788;23.710;2023-02-28T11:24:33;39.07;;;23.47;;
21876;SDS011;11103;43.788;23.710;2023-02-28T11:27:02;42.37;;;24.57;;
21876;SDS011;11103;43.788;23.710;2023-02-28T11:29:28;37.93;;;22.37;;
21876;SDS011;11103;43.788;23.710;2023-02-28T11:34:36;42.87;;;23.37;;
21876;SDS011;11103;43.788;23.710;2023-02-28T11:37:03;35.60;;;22.50;;
21876;SDS011;11103;43.788;23.710;2023-02-28T11:39:33;39.47;;;24.20;;
21876;SDS011;11103;43.788;23.710;2023-02-28T11:44:43;42.17;;;25.43;;
21876;SDS011;11103;43.788;23.710;2023-02-28T11:55:35;39.93;;;22.93;;
21876;SDS011;11103;43.788;23.710;2023-02-28T12:06:00;47.87;;;25.67;;
21876;SDS011;11103;43.788;23.710;2023-02-28T12:19:58;36.13;;;23.00;;
21876;SDS011;11103;43.788;23.710;2023-02-28T12:28:06;40.93;;;23.87;;
21876;SDS011;11103;43.788;23.710;2023-02-28T12:30:36;35.53;;;22.43;;
21876;SDS011;11103;43.788;23.710;2023-02-28T12:33:08;38.70;;;23.67;;
21876;SDS011;11103;43.788;23.710;2023-02-28T12:35:38;40.53;;;24.07;;
21876;SDS011;11103;43.788;23.710;2023-02-28T12:38:14;39.93;;;24.23;;
21876;SDS011;11103;43.788;23.710;2023-02-28T12:40:47;41.93;;;24.23;;
21876;SDS011;11103;43.788;23.710;2023-02-28T12:43:28;45.07;;;24.73;;
21876;SDS011;11103;43.788;23.710;2023-02-28T12:45:59;41.33;;;25.40;;
21876;SDS011;11103;43.788;23.710;2023-02-28T12:51:21;43.10;;;25.93;;
21876;SDS011;11103;43.788;23.710;2023-02-28T12:53:59;45.67;;;25.17;;
21876;SDS011;11103;43.788;23.710;2023-02-28T12:56:47;38.37;;;23.63;;
21876;SDS011;11103;43.788;23.710;2023-02-28T13:13:19;39.13;;;23.07;;
21876;SDS011;11103;43.788;23.710;2023-02-28T13:18:36;37.37;;;23.63;;
21876;SDS011;11103;43.788;23.710;2023-02-28T13:21:08;42.60;;;22.87;;
21876;SDS011;11103;43.788;23.710;2023-02-28T13:26:11;42.63;;;24.70;;
21876;SDS011;11103;43.788;23.710;2023-02-28T13:31:22;35.60;;;22.07;;
21876;SDS011;11103;43.788;23.710;2023-02-28T13:36:29;36.87;;;22.67;;
21876;SDS011;11103;43.788;23.710;2023-02-28T13:38:57;42.27;;;25.00;;
21876;SDS011;11103;43.788;23.710;2023-02-28T13:46:30;41.17;;;25.20;;
21876;SDS011;11103;43.788;23.710;2023-02-28T13:48:56;41.10;;;24.37;;
21876;SDS011;11103;43.788;23.710;2023-02-28T13:51:51;35.67;;;22.27;;
21876;SDS011;11103;43.788;23.710;2023-02-28T14:05:37;37.93;;;23.27;;
21876;SDS011;11103;43.788;23.710;2023-02-28T14:08:16;41.63;;;21.93;;
21876;SDS011;11103;43.788;23.710;2023-02-28T14:10:46;38.33;;;22.87;;
21876;SDS011;11103;43.788;23.710;2023-02-28T14:16:09;37.60;;;23.30;;
21876;SDS011;11103;43.788;23.710;2023-02-28T14:18:40;35.43;;;22.67;;
21876;SDS011;11103;43.788;23.710;2023-02-28T14:21:12;40.90;;;23.53;;
21876;SDS011;11103;43.788;23.710;2023-02-28T14:32:22;39.27;;;24.23;;
21876;SDS011;11103;43.788;23.710;2023-02-28T14:37:46;42.07;;;24.63;;
21876;SDS011;11103;43.788;23.710;2023-02-28T14:40:17;46.03;;;24.87;;
21876;SDS011;11103;43.788;23.710;2023-02-28T14:42:59;43.97;;;24.40;;
21876;SDS011;11103;43.788;23.710;2023-02-28T14:45:27;41.17;;;24.17;;
21876;SDS011;11103;43.788;23.710;2023-02-28T14:47:55;43.23;;;25.40;;
21876;SDS011;11103;43.788;23.710;2023-02-28T14:50:23;41.57;;;26.10;;
21876;SDS011;11103;43.788;23.710;2023-02-28T14:52:54;39.17;;;23.27;;
21876;SDS011;11103;43.788;23.710;2023-02-28T14:55:24;42.20;;;26.00;;
21876;SDS011;11103;43.788;23.710;2023-02-28T14:57:59;41.17;;;23.47;;
21876;SDS011;11103;43.788;23.710;2023-02-28T15:00:35;41.00;;;23.97;;
21876;SDS011;11103;43.788;23.710;2023-02-28T15:06:02;44.20;;;23.27;;
21876;SDS011;11103;43.788;23.710;2023-02-28T15:08:28;45.27;;;26.57;;
21876;SDS011;11103;43.788;23.710;2023-02-28T15:10:57;41.50;;;24.77;;
21876;SDS011;11103;43.788;23.710;2023-02-28T15:13:31;38.60;;;23.00;;
21876;SDS011;11103;43.788;23.710;2023-02-28T15:16:06;43.40;;;24.70;;
21876;SDS011;11103;43.788;23.710;2023-02-28T15:18:42;43.57;;;25.40;;
21876;SDS011;11103;43.788;23.710;2023-02-28T15:21:12;43.77;;;24.93;;
21876;SDS011;11103;43.788;23.710;2023-02-28T15:23:41;46.37;;;26.10;;
21876;SDS011;11103;43.788;23.710;2023-02-28T15:26:16;46.97;;;25.37;;
21876;SDS011;11103;43.788;23.710;2023-02-28T15:28:45;52.10;;;27.40;;
21876;SDS011;11103;43.788;23.710;2023-02-28T15:31:33;53.30;;;28.33;;
21876;SDS011;11103;43.788;23.710;2023-02-28T15:34:17;49.13;;;26.90;;
21876;SDS011;11103;43.788;23.710;2023-02-28T15:37:02;48.03;;;26.60;;
21876;SDS011;11103;43.788;23.710;2023-02-28T15:39:52;45.93;;;27.20;;
21876;SDS011;11103;43.788;23.710;2023-02-28T15:42:20;50.07;;;27.90;;
21876;SDS011;11103;43.788;23.710;2023-02-28T15:44:47;50.17;;;28.43;;
21876;SDS011;11103;43.788;23.710;2023-02-28T15:47:17;54.00;;;29.80;;
21876;SDS011;11103;43.788;23.710;2023-02-28T15:49:49;52.60;;;29.23;;
21876;SDS011;11103;43.788;23.710;2023-02-28T15:52:40;51.67;;;27.87;;
21876;SDS011;11103;43.788;23.710;2023-02-28T15:55:11;52.57;;;29.17;;
21876;SDS011;11103;43.788;23.710;2023-02-28T15:57:44;58.80;;;29.63;;
21876;SDS011;11103;43.788;23.710;2023-02-28T16:00:15;52.90;;;31.37;;
21876;SDS011;11103;43.788;23.710;2023-02-28T16:02:43;57.73;;;30.97;;
21876;SDS011;11103;43.788;23.710;2023-02-28T16:07:35;61.70;;;31.80;;
21876;SDS011;11103;43.788;23.710;2023-02-28T16:10:01;70.43;;;36.77;;
21876;SDS011;11103;43.788;23.710;2023-02-28T16:12:28;61.00;;;33.83;;
21876;SDS011;11103;43.788;23.710;2023-02-28T16:14:57;56.30;;;31.13;;
21876;SDS011;11103;43.788;23.710;2023-02-28T16:17:26;60.23;;;30.57;;
21876;SDS011;11103;43.788;23.710;2023-02-28T16:19:54;62.57;;;34.20;;
21876;SDS011;11103;43.788;23.710;2023-02-28T16:22:21;64.23;;;31.57;;
21876;SDS011;11103;43.788;23.710;2023-02-28T16:24:47;66.63;;;31.67;;
21876;SDS011;11103;43.788;23.710;2023-02-28T16:27:31;57.70;;;31.80;;
21876;SDS011;11103;43.788;23.710;2023-02-28T16:30:00;61.03;;;31.47;;
21876;SDS011;11103;43.788;23.710;2023-02-28T16:32:26;61.13;;;32.77;;
21876;SDS011;11103;43.788;23.710;2023-02-28T16:34:52;62.10;;;32.57;;
21876;SDS011;11103;43.788;23.710;2023-02-28T16:37:18;65.17;;;33.37;;
21876;SDS011;11103;43.788;23.710;2023-02-28T16:39:43;67.77;;;35.20;;
21876;SDS011;11103;43.788;23.710;2023-02-28T16:42:12;68.43;;;34.47;;
21876;SDS011;11103;43.788;23.710;2023-02-28T16:44:46;58.90;;;31.37;;
21876;SDS011;11103;43.788;23.710;2023-02-28T16:47:12;59.80;;;31.33;;
21876;SDS011;11103;43.788;23.710;2023-02-28T16:49:37;54.87;;;31.30;;
21876;SDS011;11103;43.788;23.710;2023-02-28T16:52:04;61.80;;;32.43;;
21876;SDS011;11103;43.788;23.710;2023-02-28T16:54:30;64.53;;;33.07;;
21876;SDS011;11103;43.788;23.710;2023-02-28T16:56:56;67.63;;;33.97;;